createdAt,value
2022-12-14T00:02:54.256Z,46.10
2022-12-14T00:05:56.792Z,46.22
2022-12-14T00:09:01.757Z,54.25
2022-12-14T00:12:04.459Z,50.58
2022-12-14T00:15:07.440Z,46.75
2022-12-14T00:18:10.914Z,32.95
2022-12-14T00:21:14.718Z,38.60
2022-12-14T00:24:16.997Z,36.60
2022-12-14T00:27:19.622Z,33.57
2022-12-14T00:30:22.007Z,41.40
2022-12-14T00:33:24.398Z,37.17
2022-12-14T00:36:26.797Z,39.53
2022-12-14T00:39:29.068Z,41.72
2022-12-14T00:42:31.837Z,36.03
2022-12-14T00:45:34.238Z,32.27
2022-12-14T00:48:36.788Z,41.20
2022-12-14T00:51:39.208Z,31.42
2022-12-14T00:54:42.381Z,44.53
2022-12-14T00:57:44.608Z,48.72
2022-12-14T01:00:48.482Z,45.92
2022-12-14T01:03:51.215Z,44.65
2022-12-14T01:06:55.067Z,49.30
2022-12-14T01:09:57.475Z,50.53
2022-12-14T01:12:59.777Z,48.85
2022-12-14T01:16:15.287Z,52.53
2022-12-14T01:19:17.705Z,47.00
2022-12-14T01:22:20.093Z,47.30
2022-12-14T01:25:22.606Z,51.85
2022-12-14T01:28:24.932Z,41.42
2022-12-14T01:31:32.031Z,44.88
2022-12-14T01:34:34.472Z,43.63
2022-12-14T01:37:36.783Z,44.45
2022-12-14T01:40:39.068Z,44.58
2022-12-14T01:43:56.486Z,41.20
2022-12-14T01:47:12.125Z,38.67
2022-12-14T01:50:36.388Z,39.63
2022-12-14T01:53:38.786Z,46.75
2022-12-14T01:56:43.864Z,38.85
2022-12-14T01:59:47.727Z,35.13
2022-12-14T02:03:12.493Z,34.33
2022-12-14T02:06:20.512Z,40.47
2022-12-14T02:09:26.331Z,37.67
2022-12-14T02:12:35.931Z,40.13
2022-12-14T02:15:39.457Z,45.85
2022-12-14T02:22:20.965Z,43.63
2022-12-14T02:25:56.050Z,45.15
2022-12-14T02:29:22.922Z,41.78
2022-12-14T02:32:42.533Z,37.17
2022-12-14T02:36:01.615Z,35.28
2022-12-14T02:39:19.176Z,34.22
2022-12-14T02:42:47.722Z,37.22
2022-12-14T02:46:19.761Z,35.38
2022-12-14T02:49:50.487Z,39.85
2022-12-14T02:52:52.779Z,34.85
2022-12-14T02:55:58.278Z,33.63
2022-12-14T02:59:01.478Z,45.63
2022-12-14T03:02:04.610Z,40.20
2022-12-14T03:08:13.003Z,42.70
2022-12-14T03:11:19.863Z,40.35
2022-12-14T03:14:32.161Z,38.50
2022-12-14T03:17:34.525Z,41.77
2022-12-14T03:20:37.982Z,41.88
2022-12-14T03:26:55.264Z,40.60
2022-12-14T03:30:01.129Z,37.45
2022-12-14T03:33:06.643Z,35.17
2022-12-14T03:36:38.172Z,37.22
2022-12-14T03:39:41.761Z,37.17
2022-12-14T03:46:13.873Z,33.55
2022-12-14T03:49:39.662Z,38.03
2022-12-14T03:52:59.606Z,36.97
2022-12-14T03:56:19.183Z,41.90
2022-12-14T03:59:36.237Z,42.47
2022-12-14T04:02:46.406Z,44.10
2022-12-14T04:06:29.285Z,41.60
2022-12-14T04:09:45.922Z,50.13
2022-12-14T04:13:07.411Z,38.85
2022-12-14T04:16:32.894Z,47.50
2022-12-14T04:20:00.379Z,47.50
2022-12-14T04:23:13.634Z,43.17
2022-12-14T04:26:18.441Z,45.55
2022-12-14T04:29:47.093Z,48.92
2022-12-14T04:32:52.520Z,54.37
2022-12-14T04:35:56.857Z,45.97
2022-12-14T04:39:06.369Z,53.17
2022-12-14T04:42:09.580Z,51.10
2022-12-14T04:45:17.108Z,48.17
2022-12-14T04:48:26.167Z,48.33
2022-12-14T04:51:41.272Z,52.80
2022-12-14T04:54:58.433Z,58.47
2022-12-14T04:58:11.037Z,52.23
2022-12-14T05:01:28.957Z,53.40
2022-12-14T05:05:18.236Z,61.40
2022-12-14T05:08:41.727Z,56.92
2022-12-14T05:12:06.837Z,57.80
2022-12-14T05:15:17.618Z,55.00
2022-12-14T05:18:20.163Z,54.33
2022-12-14T05:21:41.245Z,41.23
2022-12-14T05:24:43.518Z,56.00
2022-12-14T05:27:46.293Z,62.73
2022-12-14T05:30:48.905Z,44.72
2022-12-14T05:33:51.587Z,50.45
2022-12-14T05:36:54.644Z,57.37
2022-12-14T05:39:56.983Z,58.67
2022-12-14T05:43:11.071Z,62.13
2022-12-14T05:46:13.541Z,67.40
2022-12-14T05:49:16.507Z,66.47
2022-12-14T05:52:18.916Z,42.95
2022-12-14T05:55:21.375Z,44.03
2022-12-14T05:58:23.670Z,68.93
2022-12-14T06:01:26.076Z,58.27
2022-12-14T06:04:28.478Z,81.53
2022-12-14T06:07:30.945Z,75.10
2022-12-14T06:10:33.271Z,80.20
2022-12-14T06:13:40.090Z,128.80
2022-12-14T06:16:44.369Z,125.17
2022-12-14T06:19:50.063Z,137.70
2022-12-14T06:22:55.350Z,150.57
2022-12-14T06:25:57.817Z,91.83
2022-12-14T06:29:00.492Z,100.23
2022-12-14T06:32:02.855Z,90.47
2022-12-14T06:35:05.941Z,83.00
2022-12-14T06:38:08.697Z,123.85
2022-12-14T06:41:11.112Z,235.32
2022-12-14T06:44:14.822Z,96.77
2022-12-14T06:47:17.168Z,83.47
2022-12-14T06:50:19.538Z,72.47
2022-12-14T06:53:21.919Z,83.40
2022-12-14T06:56:26.333Z,78.90
2022-12-14T06:59:28.717Z,75.33
2022-12-14T07:02:31.563Z,66.95
2022-12-14T07:05:33.980Z,84.68
2022-12-14T07:08:39.089Z,131.83
2022-12-14T07:11:41.707Z,100.82
2022-12-14T07:14:43.947Z,61.03
2022-12-14T07:17:46.446Z,78.72
2022-12-14T07:21:04.087Z,65.93
2022-12-14T07:24:07.212Z,77.18
2022-12-14T07:27:09.729Z,71.95
2022-12-14T07:30:12.538Z,90.53
2022-12-14T07:33:14.972Z,57.60
2022-12-14T07:36:19.128Z,83.78
2022-12-14T07:39:22.210Z,79.55
2022-12-14T07:42:24.578Z,73.30
2022-12-14T07:45:27.176Z,70.60
2022-12-14T07:48:29.954Z,50.85
2022-12-14T07:51:37.265Z,71.25
2022-12-14T07:54:39.623Z,51.17
2022-12-14T07:57:41.992Z,50.28
2022-12-14T08:00:44.274Z,48.75
2022-12-14T08:03:49.268Z,50.60
2022-12-14T08:06:51.750Z,50.78
2022-12-14T08:09:54.135Z,48.55
2022-12-14T08:12:56.453Z,50.03
2022-12-14T08:16:13.634Z,54.30
2022-12-14T08:19:17.074Z,44.90
2022-12-14T08:22:19.572Z,44.88
2022-12-14T08:25:21.983Z,43.75
2022-12-14T08:28:24.908Z,48.22
2022-12-14T08:31:28.405Z,47.40
2022-12-14T08:37:33.037Z,49.50
2022-12-14T08:40:36.253Z,52.13
2022-12-14T08:43:39.233Z,49.45
2022-12-14T08:46:42.541Z,45.97
2022-12-14T08:49:45.289Z,50.85
2022-12-14T08:52:48.691Z,45.77
2022-12-14T08:55:51.146Z,50.20
2022-12-14T08:58:53.659Z,47.00
2022-12-14T09:01:56.298Z,57.22
2022-12-14T09:04:58.804Z,41.45
2022-12-14T09:08:01.098Z,41.97
2022-12-14T09:11:05.143Z,51.40
2022-12-14T09:14:07.499Z,46.17
2022-12-14T09:17:09.834Z,53.15
2022-12-14T09:20:13.784Z,43.67
2022-12-14T09:23:16.096Z,47.15
2022-12-14T09:26:23.782Z,42.78
2022-12-14T09:29:26.311Z,40.17
2022-12-14T09:32:31.835Z,50.20
2022-12-14T09:35:34.190Z,116.10
2022-12-14T09:38:38.042Z,125.22
2022-12-14T09:41:57.687Z,111.00
2022-12-14T09:45:22.680Z,129.93
2022-12-14T09:48:26.123Z,223.15
2022-12-14T09:54:40.527Z,134.65
2022-12-14T09:57:43.462Z,90.40
2022-12-14T10:01:10.361Z,92.13
2022-12-14T10:04:21.728Z,118.78
2022-12-14T10:07:40.658Z,79.88
2022-12-14T10:10:54.167Z,84.95
2022-12-14T10:14:44.079Z,51.35
2022-12-14T10:18:01.953Z,34.67
2022-12-14T10:21:13.749Z,32.65
2022-12-14T10:24:21.140Z,32.70
2022-12-14T10:27:25.783Z,39.40
2022-12-14T10:30:28.638Z,65.57
2022-12-14T10:33:32.587Z,30.55
2022-12-14T10:36:40.570Z,54.60
2022-12-14T10:40:12.469Z,59.65
2022-12-14T10:43:37.269Z,51.22
2022-12-14T10:46:59.839Z,30.40
2022-12-14T10:50:39.392Z,56.58
2022-12-14T10:53:47.888Z,47.40
2022-12-14T10:56:51.268Z,51.63
2022-12-14T11:00:07.643Z,42.88
2022-12-14T11:03:15.860Z,42.40
2022-12-14T11:06:20.155Z,43.47
2022-12-14T11:09:24.063Z,49.17
2022-12-14T11:12:27.744Z,91.20
2022-12-14T11:18:41.352Z,47.83
2022-12-14T11:21:44.382Z,43.75
2022-12-14T11:24:48.726Z,39.80
2022-12-14T11:27:51.188Z,39.70
2022-12-14T11:31:16.193Z,42.33
2022-12-14T11:34:35.000Z,35.03
2022-12-14T11:37:37.610Z,42.33
2022-12-14T11:40:40.043Z,76.72
2022-12-14T11:43:42.442Z,42.35
2022-12-14T11:47:00.309Z,38.92
2022-12-14T11:50:02.673Z,44.20
2022-12-14T11:53:11.278Z,33.50
2022-12-14T11:56:16.825Z,34.10
2022-12-14T11:59:19.936Z,35.63
2022-12-14T12:02:31.747Z,42.90
2022-12-14T12:05:39.245Z,40.30
2022-12-14T12:08:42.809Z,43.08
2022-12-14T12:11:45.866Z,38.53
2022-12-14T12:14:49.026Z,34.15
2022-12-14T12:17:55.278Z,44.85
2022-12-14T12:21:25.410Z,47.70
2022-12-14T12:25:16.710Z,49.13
2022-12-14T12:28:27.640Z,48.53
2022-12-14T12:31:34.017Z,43.20
2022-12-14T12:34:55.778Z,49.97
2022-12-14T12:38:02.784Z,119.20
2022-12-14T12:41:23.771Z,72.85
2022-12-14T12:44:41.489Z,50.63
2022-12-14T12:47:48.428Z,50.40
2022-12-14T12:50:54.124Z,91.68
2022-12-14T12:54:00.879Z,66.05
2022-12-14T12:57:04.883Z,101.15
2022-12-14T13:00:10.030Z,75.80
2022-12-14T13:03:27.953Z,73.38
2022-12-14T13:06:40.911Z,88.75
2022-12-14T13:09:53.985Z,82.73
2022-12-14T13:13:09.598Z,64.35
2022-12-14T13:16:28.775Z,58.20
2022-12-14T13:19:51.906Z,57.83
2022-12-14T13:22:59.526Z,41.70
2022-12-14T13:26:56.683Z,52.55
2022-12-14T13:30:06.610Z,42.53
2022-12-14T13:33:45.853Z,41.28
2022-12-14T13:40:25.255Z,43.97
2022-12-14T13:43:27.491Z,47.90
2022-12-14T13:46:30.356Z,58.50
2022-12-14T13:49:33.711Z,43.22
2022-12-14T13:52:41.833Z,44.88
2022-12-14T13:55:55.930Z,53.92
2022-12-14T13:58:59.484Z,47.42
2022-12-14T14:02:02.884Z,48.55
2022-12-14T14:05:20.370Z,51.25
2022-12-14T14:08:42.137Z,50.75
2022-12-14T14:11:45.214Z,52.05
2022-12-14T14:14:52.518Z,85.65
2022-12-14T14:17:56.014Z,57.35
2022-12-14T14:21:13.308Z,51.63
2022-12-14T14:24:18.636Z,47.20
2022-12-14T14:27:36.158Z,52.20
2022-12-14T14:30:51.438Z,48.47
2022-12-14T14:33:56.445Z,47.45
2022-12-14T14:36:58.850Z,54.10
2022-12-14T14:40:16.664Z,51.65
2022-12-14T14:43:49.731Z,61.15
2022-12-14T14:46:52.453Z,67.38
2022-12-14T14:50:00.125Z,63.47
2022-12-14T14:53:28.981Z,67.97
2022-12-14T14:56:31.248Z,66.67
2022-12-14T14:59:50.715Z,109.10
2022-12-14T15:02:55.378Z,80.60
2022-12-14T15:05:58.835Z,81.80
2022-12-14T15:09:21.388Z,76.90
2022-12-14T15:12:31.703Z,64.93
2022-12-14T15:15:38.287Z,79.97
2022-12-14T15:18:40.616Z,81.93
2022-12-14T15:21:42.935Z,88.20
2022-12-14T15:24:46.485Z,92.07
2022-12-14T15:30:51.038Z,88.20
2022-12-14T15:33:53.371Z,106.87
2022-12-14T15:36:56.035Z,110.93
2022-12-14T15:40:07.561Z,83.85
2022-12-14T15:43:20.943Z,113.87
2022-12-14T15:46:29.017Z,93.97
2022-12-14T15:49:31.322Z,98.37
2022-12-14T15:52:33.672Z,88.83
2022-12-14T15:55:38.549Z,94.00
2022-12-14T15:58:41.063Z,91.10
2022-12-14T16:01:53.239Z,122.83
2022-12-14T16:04:58.759Z,292.50
2022-12-14T16:08:01.119Z,119.10
2022-12-14T16:11:13.160Z,101.73
2022-12-14T16:14:22.771Z,94.57
2022-12-14T16:17:35.010Z,101.63
2022-12-14T16:20:38.540Z,105.27
2022-12-14T16:23:45.369Z,124.75
2022-12-14T16:26:57.308Z,116.80
2022-12-14T16:30:07.110Z,99.23
2022-12-14T16:33:20.277Z,102.57
2022-12-14T16:36:25.782Z,109.50
2022-12-14T16:39:47.771Z,104.23
2022-12-14T16:42:50.545Z,107.40
2022-12-14T16:45:55.914Z,108.63
2022-12-14T16:49:21.563Z,107.43
2022-12-14T16:52:32.856Z,114.73
2022-12-14T16:56:15.356Z,109.23
2022-12-14T16:59:29.525Z,101.83
2022-12-14T17:02:45.938Z,123.37
2022-12-14T17:05:53.215Z,121.23
2022-12-14T17:08:55.634Z,120.83
2022-12-14T17:12:03.699Z,111.63
2022-12-14T17:15:06.785Z,106.50
2022-12-14T17:18:10.303Z,106.65
2022-12-14T17:24:27.679Z,107.67
2022-12-14T17:27:30.579Z,80.53
2022-12-14T17:30:33.266Z,114.18
2022-12-14T17:33:35.581Z,111.65
2022-12-14T17:36:38.022Z,103.53
2022-12-14T17:39:40.319Z,102.23
2022-12-14T17:42:45.703Z,149.53
2022-12-14T17:45:48.177Z,112.43
2022-12-14T17:48:50.589Z,114.78
2022-12-14T17:51:52.888Z,103.77
2022-12-14T17:54:55.201Z,104.37
2022-12-14T17:57:58.127Z,110.67
2022-12-14T18:01:00.525Z,113.25
2022-12-14T18:04:02.964Z,113.93
2022-12-14T18:07:05.480Z,118.38
2022-12-14T18:10:08.540Z,104.35
2022-12-14T18:13:12.317Z,110.78
2022-12-14T18:16:17.770Z,115.20
2022-12-14T18:19:20.072Z,112.00
2022-12-14T18:22:22.464Z,118.17
2022-12-14T18:25:34.837Z,116.37
2022-12-14T18:28:37.177Z,112.50
2022-12-14T18:31:40.443Z,87.27
2022-12-14T18:37:45.103Z,105.53
2022-12-14T18:40:53.788Z,104.97
2022-12-14T18:43:56.562Z,107.40
2022-12-14T18:47:14.707Z,102.30
2022-12-14T18:50:22.202Z,120.63
2022-12-14T18:56:29.307Z,132.90
2022-12-14T18:59:31.679Z,114.77
2022-12-14T19:02:34.132Z,111.20
2022-12-14T19:05:36.667Z,87.20
2022-12-14T19:08:39.745Z,108.60
2022-12-14T19:11:42.698Z,126.18
2022-12-14T19:14:45.033Z,78.93
2022-12-14T19:17:52.206Z,110.40
2022-12-14T19:20:54.557Z,84.13
2022-12-14T19:23:59.487Z,111.93
2022-12-14T19:27:02.314Z,109.97
2022-12-14T19:30:06.880Z,105.00
2022-12-14T19:33:10.529Z,122.50
2022-12-14T19:36:13.039Z,127.70
2022-12-14T19:39:15.334Z,109.55
2022-12-14T19:42:18.508Z,106.30
2022-12-14T19:45:21.122Z,107.82
2022-12-14T19:48:23.442Z,95.18
2022-12-14T19:51:25.945Z,107.17
2022-12-14T19:54:30.937Z,107.27
2022-12-14T19:57:33.453Z,98.30
2022-12-14T20:00:35.883Z,84.53
2022-12-14T20:03:39.548Z,110.50
2022-12-14T20:06:44.104Z,119.13
2022-12-14T20:09:46.404Z,114.23
2022-12-14T20:12:48.746Z,103.03
2022-12-14T20:16:00.212Z,103.27
2022-12-14T20:19:02.557Z,102.10
2022-12-14T20:22:05.414Z,107.33
2022-12-14T20:25:07.998Z,80.78
2022-12-14T20:28:10.348Z,104.43
2022-12-14T20:31:15.256Z,96.90
2022-12-14T20:34:17.675Z,100.93
2022-12-14T20:37:20.082Z,82.27
2022-12-14T20:40:22.747Z,75.93
2022-12-14T20:43:25.045Z,104.43
2022-12-14T20:46:34.252Z,95.77
2022-12-14T20:49:38.933Z,102.40
2022-12-14T20:52:41.277Z,100.53
2022-12-14T20:55:43.613Z,103.13
2022-12-14T20:58:47.992Z,109.10
2022-12-14T21:01:55.831Z,107.03
2022-12-14T21:04:58.894Z,104.93
2022-12-14T21:08:01.210Z,108.07
2022-12-14T21:11:23.986Z,112.70
2022-12-14T21:14:32.473Z,138.00
2022-12-14T21:17:34.929Z,130.10
2022-12-14T21:20:37.382Z,109.43
2022-12-14T21:23:41.532Z,80.80
2022-12-14T21:26:44.195Z,112.37
2022-12-14T21:29:52.310Z,95.90
2022-12-14T21:32:54.638Z,103.70
2022-12-14T21:35:56.998Z,73.43
2022-12-14T21:38:59.543Z,105.20
2022-12-14T21:42:12.798Z,101.67
2022-12-14T21:45:15.183Z,118.15
2022-12-14T21:48:17.494Z,90.37
2022-12-14T21:51:20.200Z,127.13
2022-12-14T21:54:22.999Z,126.97
2022-12-14T21:57:49.388Z,91.70
2022-12-14T22:00:53.004Z,123.47
2022-12-14T22:03:55.398Z,157.70
2022-12-14T22:06:59.094Z,101.03
2022-12-14T22:10:01.815Z,127.20
2022-12-14T22:13:04.237Z,122.45
2022-12-14T22:16:07.662Z,94.17
2022-12-14T22:19:15.121Z,103.87
2022-12-14T22:22:17.728Z,125.90
2022-12-14T22:25:20.024Z,105.95
2022-12-14T22:28:22.819Z,113.83
2022-12-14T22:31:25.922Z,107.28
2022-12-14T22:34:28.288Z,108.80
2022-12-14T22:37:30.899Z,118.93
2022-12-14T22:40:33.390Z,90.63
2022-12-14T22:43:37.531Z,92.43
2022-12-14T22:46:40.690Z,113.23
2022-12-14T22:49:43.398Z,126.85
2022-12-14T22:52:49.525Z,127.10
2022-12-14T22:55:52.305Z,143.90
2022-12-14T22:59:09.796Z,169.33
2022-12-14T23:02:12.263Z,174.40
2022-12-14T23:05:14.860Z,141.95
2022-12-14T23:08:17.218Z,195.00
2022-12-14T23:11:38.257Z,210.10
2022-12-14T23:14:59.344Z,161.67
2022-12-14T23:18:22.209Z,132.47
2022-12-14T23:21:43.222Z,206.23
2022-12-14T23:25:04.054Z,154.67
2022-12-14T23:28:25.235Z,118.50
2022-12-14T23:31:46.172Z,106.37
2022-12-14T23:35:07.026Z,108.00
2022-12-14T23:38:28.809Z,141.97
2022-12-14T23:41:50.112Z,111.10
2022-12-14T23:45:11.009Z,123.90
2022-12-14T23:48:31.896Z,103.37
2022-12-14T23:51:53.040Z,127.20
2022-12-14T23:55:14.102Z,116.30
2022-12-14T23:58:34.951Z,119.33
